sensor_id;sensor_type;location;lat;lon;timestamp;P1;durP1;ratioP1;P2;durP2;ratioP2
2386;SDS011;49473;50.772;8.768;2023-12-28T00:00:07;5.93;;;5.33;;
2386;SDS011;49473;50.772;8.768;2023-12-28T00:02:35;5.87;;;5.20;;
2386;SDS011;49473;50.772;8.768;2023-12-28T00:05:01;7.33;;;4.83;;
2386;SDS011;49473;50.772;8.768;2023-12-28T00:07:30;7.03;;;4.83;;
2386;SDS011;49473;50.772;8.768;2023-12-28T00:09:56;6.40;;;5.80;;
2386;SDS011;49473;50.772;8.768;2023-12-28T00:12:23;6.67;;;5.93;;
2386;SDS011;49473;50.772;8.768;2023-12-28T00:14:50;6.40;;;5.37;;
2386;SDS011;49473;50.772;8.768;2023-12-28T00:17:17;6.00;;;5.40;;
2386;SDS011;49473;50.772;8.768;2023-12-28T00:19:44;6.70;;;6.03;;
2386;SDS011;49473;50.772;8.768;2023-12-28T00:22:10;7.20;;;5.60;;
2386;SDS011;49473;50.772;8.768;2023-12-28T00:24:38;5.87;;;5.17;;
2386;SDS011;49473;50.772;8.768;2023-12-28T00:27:05;9.93;;;6.10;;
2386;SDS011;49473;50.772;8.768;2023-12-28T00:29:32;6.70;;;6.00;;
2386;SDS011;49473;50.772;8.768;2023-12-28T00:31:59;6.10;;;5.50;;
2386;SDS011;49473;50.772;8.768;2023-12-28T00:34:26;6.90;;;5.60;;
2386;SDS011;49473;50.772;8.768;2023-12-28T00:36:53;4.90;;;4.40;;
2386;SDS011;49473;50.772;8.768;2023-12-28T00:39:19;7.07;;;5.83;;
2386;SDS011;49473;50.772;8.768;2023-12-28T00:41:47;8.63;;;6.00;;
2386;SDS011;49473;50.772;8.768;2023-12-28T00:44:14;7.57;;;5.97;;
2386;SDS011;49473;50.772;8.768;2023-12-28T00:46:41;8.90;;;5.03;;
2386;SDS011;49473;50.772;8.768;2023-12-28T00:49:09;6.00;;;4.83;;
2386;SDS011;49473;50.772;8.768;2023-12-28T00:51:35;5.93;;;5.40;;
2386;SDS011;49473;50.772;8.768;2023-12-28T00:54:02;5.07;;;4.40;;
2386;SDS011;49473;50.772;8.768;2023-12-28T00:56:29;8.63;;;5.00;;
2386;SDS011;49473;50.772;8.768;2023-12-28T00:58:57;4.97;;;4.50;;
2386;SDS011;49473;50.772;8.768;2023-12-28T01:01:24;8.00;;;4.93;;
2386;SDS011;49473;50.772;8.768;2023-12-28T01:03:50;5.07;;;4.57;;
2386;SDS011;49473;50.772;8.768;2023-12-28T01:06:17;5.70;;;5.10;;
2386;SDS011;49473;50.772;8.768;2023-12-28T01:08:45;7.73;;;5.10;;
2386;SDS011;49473;50.772;8.768;2023-12-28T01:11:12;5.03;;;4.53;;
2386;SDS011;49473;50.772;8.768;2023-12-28T01:13:38;5.63;;;5.00;;
2386;SDS011;49473;50.772;8.768;2023-12-28T01:16:07;5.50;;;4.50;;
2386;SDS011;49473;50.772;8.768;2023-12-28T01:18:33;4.77;;;4.37;;
2386;SDS011;49473;50.772;8.768;2023-12-28T01:21:00;4.30;;;3.90;;
2386;SDS011;49473;50.772;8.768;2023-12-28T01:23:27;5.97;;;5.07;;
2386;SDS011;49473;50.772;8.768;2023-12-28T01:25:54;6.13;;;4.67;;
2386;SDS011;49473;50.772;8.768;2023-12-28T01:28:22;5.73;;;5.00;;
2386;SDS011;49473;50.772;8.768;2023-12-28T01:30:48;6.10;;;5.10;;
2386;SDS011;49473;50.772;8.768;2023-12-28T01:33:16;7.77;;;4.77;;
2386;SDS011;49473;50.772;8.768;2023-12-28T01:35:43;4.63;;;4.17;;
2386;SDS011;49473;50.772;8.768;2023-12-28T01:38:10;4.63;;;4.20;;
2386;SDS011;49473;50.772;8.768;2023-12-28T01:40:36;6.07;;;4.97;;
2386;SDS011;49473;50.772;8.768;2023-12-28T01:43:03;5.17;;;4.70;;
2386;SDS011;49473;50.772;8.768;2023-12-28T01:45:30;4.60;;;4.00;;
2386;SDS011;49473;50.772;8.768;2023-12-28T01:47:57;5.40;;;4.17;;
2386;SDS011;49473;50.772;8.768;2023-12-28T01:50:26;5.20;;;4.43;;
2386;SDS011;49473;50.772;8.768;2023-12-28T01:52:54;4.90;;;4.40;;
2386;SDS011;49473;50.772;8.768;2023-12-28T01:55:23;4.57;;;4.20;;
2386;SDS011;49473;50.772;8.768;2023-12-28T01:57:50;4.00;;;3.60;;
2386;SDS011;49473;50.772;8.768;2023-12-28T02:00:17;3.80;;;3.50;;
2386;SDS011;49473;50.772;8.768;2023-12-28T02:02:45;3.70;;;3.40;;
2386;SDS011;49473;50.772;8.768;2023-12-28T02:05:12;6.97;;;3.57;;
2386;SDS011;49473;50.772;8.768;2023-12-28T02:07:41;4.03;;;2.90;;
2386;SDS011;49473;50.772;8.768;2023-12-28T02:10:08;4.97;;;4.07;;
2386;SDS011;49473;50.772;8.768;2023-12-28T02:12:35;4.37;;;4.07;;
2386;SDS011;49473;50.772;8.768;2023-12-28T02:15:02;3.93;;;3.53;;
2386;SDS011;49473;50.772;8.768;2023-12-28T02:17:30;4.20;;;3.00;;
2386;SDS011;49473;50.772;8.768;2023-12-28T02:20:02;4.50;;;4.07;;
2386;SDS011;49473;50.772;8.768;2023-12-28T02:22:31;6.07;;;3.83;;
2386;SDS011;49473;50.772;8.768;2023-12-28T02:25:05;4.67;;;3.20;;
2386;SDS011;49473;50.772;8.768;2023-12-28T02:27:33;7.43;;;3.53;;
2386;SDS011;49473;50.772;8.768;2023-12-28T02:30:02;3.30;;;3.00;;
2386;SDS011;49473;50.772;8.768;2023-12-28T02:32:36;3.67;;;2.80;;
2386;SDS011;49473;50.772;8.768;2023-12-28T02:35:16;3.00;;;2.80;;
2386;SDS011;49473;50.772;8.768;2023-12-28T02:37:46;3.83;;;2.53;;
2386;SDS011;49473;50.772;8.768;2023-12-28T02:40:18;3.83;;;2.97;;
2386;SDS011;49473;50.772;8.768;2023-12-28T02:42:45;3.63;;;3.27;;
2386;SDS011;49473;50.772;8.768;2023-12-28T02:45:12;3.23;;;2.93;;
2386;SDS011;49473;50.772;8.768;2023-12-28T02:47:38;2.70;;;2.50;;
2386;SDS011;49473;50.772;8.768;2023-12-28T02:50:06;2.80;;;2.17;;
2386;SDS011;49473;50.772;8.768;2023-12-28T02:52:33;3.60;;;2.50;;
2386;SDS011;49473;50.772;8.768;2023-12-28T02:55:00;3.03;;;2.77;;
2386;SDS011;49473;50.772;8.768;2023-12-28T02:57:28;2.50;;;2.30;;
2386;SDS011;49473;50.772;8.768;2023-12-28T02:59:55;2.23;;;2.10;;
2386;SDS011;49473;50.772;8.768;2023-12-28T03:02:28;3.20;;;2.90;;
2386;SDS011;49473;50.772;8.768;2023-12-28T03:04:55;3.40;;;2.80;;
2386;SDS011;49473;50.772;8.768;2023-12-28T03:07:21;2.63;;;2.43;;
2386;SDS011;49473;50.772;8.768;2023-12-28T03:09:48;3.67;;;2.53;;
2386;SDS011;49473;50.772;8.768;2023-12-28T03:12:15;3.00;;;2.80;;
2386;SDS011;49473;50.772;8.768;2023-12-28T03:14:43;3.00;;;2.50;;
2386;SDS011;49473;50.772;8.768;2023-12-28T03:17:10;2.77;;;2.57;;
2386;SDS011;49473;50.772;8.768;2023-12-28T03:19:38;2.70;;;2.10;;
2386;SDS011;49473;50.772;8.768;2023-12-28T03:22:04;2.67;;;2.30;;
2386;SDS011;49473;50.772;8.768;2023-12-28T03:24:32;2.70;;;2.50;;
2386;SDS011;49473;50.772;8.768;2023-12-28T03:26:58;3.73;;;2.57;;
2386;SDS011;49473;50.772;8.768;2023-12-28T03:29:26;2.33;;;2.13;;
2386;SDS011;49473;50.772;8.768;2023-12-28T03:31:55;2.60;;;2.40;;
2386;SDS011;49473;50.772;8.768;2023-12-28T03:34:21;2.97;;;2.67;;
2386;SDS011;49473;50.772;8.768;2023-12-28T03:36:48;3.13;;;2.77;;
2386;SDS011;49473;50.772;8.768;2023-12-28T03:39:15;3.33;;;3.03;;
2386;SDS011;49473;50.772;8.768;2023-12-28T03:41:42;2.93;;;2.50;;
2386;SDS011;49473;50.772;8.768;2023-12-28T03:44:09;2.90;;;2.70;;
2386;SDS011;49473;50.772;8.768;2023-12-28T03:46:35;2.33;;;2.20;;
2386;SDS011;49473;50.772;8.768;2023-12-28T03:49:03;3.03;;;2.50;;
2386;SDS011;49473;50.772;8.768;2023-12-28T03:51:30;2.73;;;2.53;;
2386;SDS011;49473;50.772;8.768;2023-12-28T03:53:57;2.83;;;2.60;;
2386;SDS011;49473;50.772;8.768;2023-12-28T03:56:24;2.57;;;2.37;;
2386;SDS011;49473;50.772;8.768;2023-12-28T03:58:52;3.77;;;3.00;;
2386;SDS011;49473;50.772;8.768;2023-12-28T04:01:19;2.63;;;2.43;;
2386;SDS011;49473;50.772;8.768;2023-12-28T04:03:47;3.70;;;2.67;;
2386;SDS011;49473;50.772;8.768;2023-12-28T04:06:15;2.70;;;2.50;;
2386;SDS011;49473;50.772;8.768;2023-12-28T04:08:42;2.80;;;2.57;;
2386;SDS011;49473;50.772;8.768;2023-12-28T04:11:09;2.47;;;2.27;;
2386;SDS011;49473;50.772;8.768;2023-12-28T04:13:36;3.13;;;2.47;;
2386;SDS011;49473;50.772;8.768;2023-12-28T04:16:04;4.63;;;3.00;;
2386;SDS011;49473;50.772;8.768;2023-12-28T04:18:31;2.93;;;2.50;;
2386;SDS011;49473;50.772;8.768;2023-12-28T04:20:58;3.40;;;2.60;;
2386;SDS011;49473;50.772;8.768;2023-12-28T04:23:26;3.07;;;2.77;;
2386;SDS011;49473;50.772;8.768;2023-12-28T04:25:53;2.53;;;2.33;;
2386;SDS011;49473;50.772;8.768;2023-12-28T04:28:20;2.87;;;2.50;;
2386;SDS011;49473;50.772;8.768;2023-12-28T04:30:46;2.77;;;2.57;;
2386;SDS011;49473;50.772;8.768;2023-12-28T04:33:16;3.30;;;3.00;;
2386;SDS011;49473;50.772;8.768;2023-12-28T04:35:44;2.43;;;2.23;;
2386;SDS011;49473;50.772;8.768;2023-12-28T04:38:10;2.90;;;2.70;;
2386;SDS011;49473;50.772;8.768;2023-12-28T04:40:38;2.70;;;2.50;;
2386;SDS011;49473;50.772;8.768;2023-12-28T04:43:08;3.37;;;3.07;;
2386;SDS011;49473;50.772;8.768;2023-12-28T04:45:35;4.20;;;2.63;;
2386;SDS011;49473;50.772;8.768;2023-12-28T04:48:02;2.67;;;2.37;;
2386;SDS011;49473;50.772;8.768;2023-12-28T04:50:29;2.60;;;2.23;;
2386;SDS011;49473;50.772;8.768;2023-12-28T04:52:55;2.90;;;2.60;;
2386;SDS011;49473;50.772;8.768;2023-12-28T04:55:22;5.93;;;2.80;;
2386;SDS011;49473;50.772;8.768;2023-12-28T04:57:51;2.83;;;2.63;;
2386;SDS011;49473;50.772;8.768;2023-12-28T05:00:18;2.80;;;2.60;;
2386;SDS011;49473;50.772;8.768;2023-12-28T05:02:45;2.27;;;2.17;;
2386;SDS011;49473;50.772;8.768;2023-12-28T05:05:12;2.90;;;2.63;;
2386;SDS011;49473;50.772;8.768;2023-12-28T05:07:38;3.10;;;2.80;;
2386;SDS011;49473;50.772;8.768;2023-12-28T05:10:05;4.67;;;2.90;;
2386;SDS011;49473;50.772;8.768;2023-12-28T05:12:33;3.00;;;2.70;;
2386;SDS011;49473;50.772;8.768;2023-12-28T05:15:01;3.27;;;2.87;;
2386;SDS011;49473;50.772;8.768;2023-12-28T05:17:27;3.27;;;2.97;;
2386;SDS011;49473;50.772;8.768;2023-12-28T05:19:54;2.97;;;2.77;;
2386;SDS011;49473;50.772;8.768;2023-12-28T05:22:21;3.30;;;2.70;;
2386;SDS011;49473;50.772;8.768;2023-12-28T05:24:48;7.20;;;2.90;;
2386;SDS011;49473;50.772;8.768;2023-12-28T05:27:15;2.60;;;2.07;;
2386;SDS011;49473;50.772;8.768;2023-12-28T05:29:42;3.67;;;2.47;;
2386;SDS011;49473;50.772;8.768;2023-12-28T05:32:10;2.60;;;2.40;;
2386;SDS011;49473;50.772;8.768;2023-12-28T05:34:36;3.90;;;2.50;;
2386;SDS011;49473;50.772;8.768;2023-12-28T05:37:03;3.37;;;2.70;;
2386;SDS011;49473;50.772;8.768;2023-12-28T05:39:30;2.10;;;2.00;;
2386;SDS011;49473;50.772;8.768;2023-12-28T05:41:57;2.27;;;2.17;;
2386;SDS011;49473;50.772;8.768;2023-12-28T05:44:23;2.40;;;2.20;;
2386;SDS011;49473;50.772;8.768;2023-12-28T05:46:50;2.37;;;2.17;;
2386;SDS011;49473;50.772;8.768;2023-12-28T05:49:19;3.27;;;2.67;;
2386;SDS011;49473;50.772;8.768;2023-12-28T05:51:45;2.80;;;2.60;;
2386;SDS011;49473;50.772;8.768;2023-12-28T05:54:12;2.40;;;2.20;;
2386;SDS011;49473;50.772;8.768;2023-12-28T05:56:39;3.27;;;2.33;;
2386;SDS011;49473;50.772;8.768;2023-12-28T05:59:06;2.10;;;2.00;;
2386;SDS011;49473;50.772;8.768;2023-12-28T06:01:40;2.30;;;2.07;;
2386;SDS011;49473;50.772;8.768;2023-12-28T06:04:08;3.00;;;2.17;;
2386;SDS011;49473;50.772;8.768;2023-12-28T06:06:36;3.10;;;2.27;;
2386;SDS011;49473;50.772;8.768;2023-12-28T06:09:02;2.00;;;1.90;;
2386;SDS011;49473;50.772;8.768;2023-12-28T06:11:29;2.40;;;2.20;;
2386;SDS011;49473;50.772;8.768;2023-12-28T06:13:56;2.37;;;2.17;;
2386;SDS011;49473;50.772;8.768;2023-12-28T06:16:23;2.30;;;2.07;;
2386;SDS011;49473;50.772;8.768;2023-12-28T06:18:50;2.20;;;2.00;;
2386;SDS011;49473;50.772;8.768;2023-12-28T06:21:17;2.80;;;2.13;;
2386;SDS011;49473;50.772;8.768;2023-12-28T06:23:46;3.90;;;2.70;;
2386;SDS011;49473;50.772;8.768;2023-12-28T06:26:12;2.30;;;2.03;;
2386;SDS011;49473;50.772;8.768;2023-12-28T06:28:39;4.87;;;3.30;;
2386;SDS011;49473;50.772;8.768;2023-12-28T06:31:06;2.23;;;2.10;;
2386;SDS011;49473;50.772;8.768;2023-12-28T06:33:33;2.30;;;2.10;;
2386;SDS011;49473;50.772;8.768;2023-12-28T06:36:04;3.30;;;2.30;;
2386;SDS011;49473;50.772;8.768;2023-12-28T06:38:31;2.77;;;2.47;;
2386;SDS011;49473;50.772;8.768;2023-12-28T06:40:59;2.23;;;2.03;;
2386;SDS011;49473;50.772;8.768;2023-12-28T06:43:26;2.93;;;2.73;;
2386;SDS011;49473;50.772;8.768;2023-12-28T06:45:53;2.37;;;2.20;;
2386;SDS011;49473;50.772;8.768;2023-12-28T06:48:20;2.30;;;1.97;;
2386;SDS011;49473;50.772;8.768;2023-12-28T06:50:47;2.50;;;2.20;;
2386;SDS011;49473;50.772;8.768;2023-12-28T06:53:14;2.20;;;2.10;;
2386;SDS011;49473;50.772;8.768;2023-12-28T06:55:41;2.50;;;2.20;;
2386;SDS011;49473;50.772;8.768;2023-12-28T06:58:09;3.03;;;2.73;;
2386;SDS011;49473;50.772;8.768;2023-12-28T07:00:36;2.80;;;2.53;;
2386;SDS011;49473;50.772;8.768;2023-12-28T07:03:02;2.80;;;2.43;;
2386;SDS011;49473;50.772;8.768;2023-12-28T07:05:29;2.20;;;2.10;;
2386;SDS011;49473;50.772;8.768;2023-12-28T07:07:56;2.20;;;2.00;;
2386;SDS011;49473;50.772;8.768;2023-12-28T07:10:23;3.47;;;3.17;;
2386;SDS011;49473;50.772;8.768;2023-12-28T07:12:49;3.23;;;2.93;;
2386;SDS011;49473;50.772;8.768;2023-12-28T07:15:18;3.43;;;3.10;;
2386;SDS011;49473;50.772;8.768;2023-12-28T07:17:44;3.43;;;3.03;;
2386;SDS011;49473;50.772;8.768;2023-12-28T07:20:11;3.80;;;3.10;;
2386;SDS011;49473;50.772;8.768;2023-12-28T07:22:38;4.60;;;3.27;;
2386;SDS011;49473;50.772;8.768;2023-12-28T07:25:05;3.33;;;3.07;;
2386;SDS011;49473;50.772;8.768;2023-12-28T07:27:32;3.43;;;3.10;;
2386;SDS011;49473;50.772;8.768;2023-12-28T07:30:00;3.27;;;2.60;;
2386;SDS011;49473;50.772;8.768;2023-12-28T07:32:28;3.60;;;3.30;;
2386;SDS011;49473;50.772;8.768;2023-12-28T07:34:55;3.97;;;3.40;;
2386;SDS011;49473;50.772;8.768;2023-12-28T07:37:22;3.57;;;3.07;;
2386;SDS011;49473;50.772;8.768;2023-12-28T07:39:49;3.40;;;3.10;;
2386;SDS011;49473;50.772;8.768;2023-12-28T07:42:15;3.20;;;2.90;;
2386;SDS011;49473;50.772;8.768;2023-12-28T07:44:42;5.30;;;3.30;;
2386;SDS011;49473;50.772;8.768;2023-12-28T07:47:09;3.50;;;3.20;;
2386;SDS011;49473;50.772;8.768;2023-12-28T07:49:38;3.83;;;3.00;;
2386;SDS011;49473;50.772;8.768;2023-12-28T07:52:05;3.70;;;3.40;;
2386;SDS011;49473;50.772;8.768;2023-12-28T07:54:32;3.60;;;3.30;;
2386;SDS011;49473;50.772;8.768;2023-12-28T07:56:59;2.90;;;2.70;;
2386;SDS011;49473;50.772;8.768;2023-12-28T07:59:25;3.03;;;2.77;;
2386;SDS011;49473;50.772;8.768;2023-12-28T08:01:52;3.43;;;3.13;;
2386;SDS011;49473;50.772;8.768;2023-12-28T08:04:19;5.10;;;3.43;;
2386;SDS011;49473;50.772;8.768;2023-12-28T08:06:47;4.20;;;3.40;;
2386;SDS011;49473;50.772;8.768;2023-12-28T08:09:14;4.80;;;3.30;;
2386;SDS011;49473;50.772;8.768;2023-12-28T08:11:40;4.53;;;3.10;;
2386;SDS011;49473;50.772;8.768;2023-12-28T08:14:07;5.23;;;3.43;;
2386;SDS011;49473;50.772;8.768;2023-12-28T08:16:34;4.57;;;3.50;;
2386;SDS011;49473;50.772;8.768;2023-12-28T08:19:01;3.80;;;3.40;;
2386;SDS011;49473;50.772;8.768;2023-12-28T08:21:28;3.60;;;3.30;;
2386;SDS011;49473;50.772;8.768;2023-12-28T08:23:56;5.70;;;5.17;;
2386;SDS011;49473;50.772;8.768;2023-12-28T08:26:23;4.67;;;4.37;;
2386;SDS011;49473;50.772;8.768;2023-12-28T08:28:49;5.50;;;3.23;;
2386;SDS011;49473;50.772;8.768;2023-12-28T08:31:16;4.00;;;3.67;;
2386;SDS011;49473;50.772;8.768;2023-12-28T08:33:44;7.77;;;3.27;;
2386;SDS011;49473;50.772;8.768;2023-12-28T08:36:11;4.73;;;2.97;;
2386;SDS011;49473;50.772;8.768;2023-12-28T08:38:38;3.20;;;3.00;;
2386;SDS011;49473;50.772;8.768;2023-12-28T08:41:06;3.80;;;3.40;;
2386;SDS011;49473;50.772;8.768;2023-12-28T08:43:34;3.30;;;3.00;;
2386;SDS011;49473;50.772;8.768;2023-12-28T08:46:01;7.23;;;3.70;;
2386;SDS011;49473;50.772;8.768;2023-12-28T08:48:28;3.87;;;3.47;;
2386;SDS011;49473;50.772;8.768;2023-12-28T08:50:55;3.57;;;3.27;;
2386;SDS011;49473;50.772;8.768;2023-12-28T08:53:21;5.80;;;3.57;;
2386;SDS011;49473;50.772;8.768;2023-12-28T08:55:48;3.60;;;3.23;;
2386;SDS011;49473;50.772;8.768;2023-12-28T08:58:17;4.47;;;3.20;;
2386;SDS011;49473;50.772;8.768;2023-12-28T09:00:44;3.73;;;3.17;;
2386;SDS011;49473;50.772;8.768;2023-12-28T09:03:12;3.40;;;3.10;;
2386;SDS011;49473;50.772;8.768;2023-12-28T09:05:38;3.67;;;2.70;;
2386;SDS011;49473;50.772;8.768;2023-12-28T09:08:05;3.27;;;3.03;;
2386;SDS011;49473;50.772;8.768;2023-12-28T09:10:33;6.07;;;3.60;;
2386;SDS011;49473;50.772;8.768;2023-12-28T09:12:59;3.83;;;3.20;;
2386;SDS011;49473;50.772;8.768;2023-12-28T09:15:28;2.77;;;2.57;;
2386;SDS011;49473;50.772;8.768;2023-12-28T09:17:55;3.10;;;2.80;;
2386;SDS011;49473;50.772;8.768;2023-12-28T09:20:22;3.30;;;2.40;;
2386;SDS011;49473;50.772;8.768;2023-12-28T09:22:49;3.70;;;3.03;;
2386;SDS011;49473;50.772;8.768;2023-12-28T09:25:21;3.10;;;2.80;;
2386;SDS011;49473;50.772;8.768;2023-12-28T09:27:47;2.57;;;2.37;;
2386;SDS011;49473;50.772;8.768;2023-12-28T09:30:14;3.23;;;3.00;;
2386;SDS011;49473;50.772;8.768;2023-12-28T09:32:43;2.90;;;2.70;;
2386;SDS011;49473;50.772;8.768;2023-12-28T09:35:09;2.93;;;2.60;;
2386;SDS011;49473;50.772;8.768;2023-12-28T09:37:36;4.03;;;2.67;;
2386;SDS011;49473;50.772;8.768;2023-12-28T09:40:03;3.20;;;2.90;;
2386;SDS011;49473;50.772;8.768;2023-12-28T09:42:35;2.70;;;2.40;;
2386;SDS011;49473;50.772;8.768;2023-12-28T09:45:09;3.60;;;2.73;;
2386;SDS011;49473;50.772;8.768;2023-12-28T09:47:36;3.93;;;2.47;;
2386;SDS011;49473;50.772;8.768;2023-12-28T09:50:05;2.83;;;2.63;;
2386;SDS011;49473;50.772;8.768;2023-12-28T09:52:32;3.40;;;2.90;;
2386;SDS011;49473;50.772;8.768;2023-12-28T09:54:59;3.27;;;2.97;;
2386;SDS011;49473;50.772;8.768;2023-12-28T09:57:26;4.40;;;3.70;;
2386;SDS011;49473;50.772;8.768;2023-12-28T09:59:52;2.70;;;2.50;;
2386;SDS011;49473;50.772;8.768;2023-12-28T10:02:20;6.23;;;2.70;;
2386;SDS011;49473;50.772;8.768;2023-12-28T10:04:47;3.60;;;2.93;;
2386;SDS011;49473;50.772;8.768;2023-12-28T10:07:15;2.90;;;2.20;;
2386;SDS011;49473;50.772;8.768;2023-12-28T10:09:42;2.00;;;1.80;;
2386;SDS011;49473;50.772;8.768;2023-12-28T10:12:09;2.97;;;2.10;;
2386;SDS011;49473;50.772;8.768;2023-12-28T10:14:36;3.07;;;2.20;;
2386;SDS011;49473;50.772;8.768;2023-12-28T10:17:02;2.87;;;2.47;;
2386;SDS011;49473;50.772;8.768;2023-12-28T10:19:29;1.53;;;1.43;;
2386;SDS011;49473;50.772;8.768;2023-12-28T10:21:57;3.27;;;2.20;;
2386;SDS011;49473;50.772;8.768;2023-12-28T10:24:26;2.30;;;1.50;;
2386;SDS011;49473;50.772;8.768;2023-12-28T10:26:52;2.37;;;1.80;;
2386;SDS011;49473;50.772;8.768;2023-12-28T10:29:19;3.73;;;2.13;;
2386;SDS011;49473;50.772;8.768;2023-12-28T10:31:48;2.23;;;2.00;;
2386;SDS011;49473;50.772;8.768;2023-12-28T10:34:16;2.10;;;1.90;;
2386;SDS011;49473;50.772;8.768;2023-12-28T10:36:44;3.80;;;2.20;;
2386;SDS011;49473;50.772;8.768;2023-12-28T10:39:11;2.37;;;2.17;;
2386;SDS011;49473;50.772;8.768;2023-12-28T10:41:44;1.80;;;1.70;;
2386;SDS011;49473;50.772;8.768;2023-12-28T10:44:15;3.13;;;2.17;;
2386;SDS011;49473;50.772;8.768;2023-12-28T10:46:46;2.07;;;1.70;;
2386;SDS011;49473;50.772;8.768;2023-12-28T10:49:16;2.23;;;1.93;;
2386;SDS011;49473;50.772;8.768;2023-12-28T10:51:45;2.20;;;1.93;;
2386;SDS011;49473;50.772;8.768;2023-12-28T10:54:23;2.20;;;2.00;;
2386;SDS011;49473;50.772;8.768;2023-12-28T10:57:01;2.07;;;1.87;;
2386;SDS011;49473;50.772;8.768;2023-12-28T10:59:37;2.30;;;2.10;;
2386;SDS011;49473;50.772;8.768;2023-12-28T11:02:11;1.90;;;1.80;;
2386;SDS011;49473;50.772;8.768;2023-12-28T11:04:43;3.60;;;2.00;;
2386;SDS011;49473;50.772;8.768;2023-12-28T11:07:13;2.60;;;1.73;;
2386;SDS011;49473;50.772;8.768;2023-12-28T11:09:42;2.27;;;2.07;;
2386;SDS011;49473;50.772;8.768;2023-12-28T11:12:11;2.50;;;1.80;;
2386;SDS011;49473;50.772;8.768;2023-12-28T11:14:39;2.03;;;1.83;;
2386;SDS011;49473;50.772;8.768;2023-12-28T11:17:06;2.77;;;2.33;;
2386;SDS011;49473;50.772;8.768;2023-12-28T11:19:33;2.37;;;2.10;;
2386;SDS011;49473;50.772;8.768;2023-12-28T11:22:01;1.90;;;1.80;;
2386;SDS011;49473;50.772;8.768;2023-12-28T11:24:30;3.10;;;2.70;;
2386;SDS011;49473;50.772;8.768;2023-12-28T11:26:57;2.47;;;2.00;;
2386;SDS011;49473;50.772;8.768;2023-12-28T11:29:25;2.00;;;1.80;;
2386;SDS011;49473;50.772;8.768;2023-12-28T11:31:57;3.33;;;1.70;;
2386;SDS011;49473;50.772;8.768;2023-12-28T11:34:24;2.60;;;2.10;;
2386;SDS011;49473;50.772;8.768;2023-12-28T11:36:52;2.10;;;1.90;;
2386;SDS011;49473;50.772;8.768;2023-12-28T11:39:26;4.10;;;3.37;;
2386;SDS011;49473;50.772;8.768;2023-12-28T11:41:59;3.70;;;2.17;;
2386;SDS011;49473;50.772;8.768;2023-12-28T11:44:29;2.43;;;1.90;;
2386;SDS011;49473;50.772;8.768;2023-12-28T11:46:57;2.43;;;2.10;;
2386;SDS011;49473;50.772;8.768;2023-12-28T11:49:26;3.60;;;2.60;;
2386;SDS011;49473;50.772;8.768;2023-12-28T11:51:55;2.33;;;1.83;;
2386;SDS011;49473;50.772;8.768;2023-12-28T11:54:24;2.73;;;1.70;;
2386;SDS011;49473;50.772;8.768;2023-12-28T11:56:51;3.73;;;1.87;;
2386;SDS011;49473;50.772;8.768;2023-12-28T11:59:18;1.60;;;1.50;;
2386;SDS011;49473;50.772;8.768;2023-12-28T12:01:50;3.00;;;1.90;;
2386;SDS011;49473;50.772;8.768;2023-12-28T12:04:17;2.77;;;1.53;;
2386;SDS011;49473;50.772;8.768;2023-12-28T12:06:44;4.33;;;1.77;;
2386;SDS011;49473;50.772;8.768;2023-12-28T12:09:12;3.30;;;1.67;;
2386;SDS011;49473;50.772;8.768;2023-12-28T12:11:39;2.93;;;1.57;;
2386;SDS011;49473;50.772;8.768;2023-12-28T12:14:07;2.87;;;1.70;;
2386;SDS011;49473;50.772;8.768;2023-12-28T12:16:35;2.23;;;1.23;;
2386;SDS011;49473;50.772;8.768;2023-12-28T12:19:03;4.27;;;2.00;;
2386;SDS011;49473;50.772;8.768;2023-12-28T12:21:32;3.63;;;2.10;;
2386;SDS011;49473;50.772;8.768;2023-12-28T12:23:59;4.03;;;2.87;;
2386;SDS011;49473;50.772;8.768;2023-12-28T12:26:26;4.10;;;3.00;;
2386;SDS011;49473;50.772;8.768;2023-12-28T12:28:52;4.40;;;2.03;;
2386;SDS011;49473;50.772;8.768;2023-12-28T12:31:19;1.80;;;1.70;;
2386;SDS011;49473;50.772;8.768;2023-12-28T12:33:47;3.80;;;2.40;;
2386;SDS011;49473;50.772;8.768;2023-12-28T12:36:15;2.93;;;1.53;;
2386;SDS011;49473;50.772;8.768;2023-12-28T12:38:42;2.40;;;1.33;;
2386;SDS011;49473;50.772;8.768;2023-12-28T12:41:09;2.40;;;2.17;;
2386;SDS011;49473;50.772;8.768;2023-12-28T12:43:36;3.23;;;1.70;;
2386;SDS011;49473;50.772;8.768;2023-12-28T12:46:03;3.57;;;1.40;;
2386;SDS011;49473;50.772;8.768;2023-12-28T12:48:30;1.60;;;1.50;;
2386;SDS011;49473;50.772;8.768;2023-12-28T12:50:57;5.47;;;1.67;;
2386;SDS011;49473;50.772;8.768;2023-12-28T12:53:25;2.60;;;1.33;;
2386;SDS011;49473;50.772;8.768;2023-12-28T12:55:59;2.80;;;1.40;;
2386;SDS011;49473;50.772;8.768;2023-12-28T12:58:26;2.03;;;1.70;;
2386;SDS011;49473;50.772;8.768;2023-12-28T13:00:55;2.40;;;1.33;;
2386;SDS011;49473;50.772;8.768;2023-12-28T13:03:26;3.73;;;1.43;;
2386;SDS011;49473;50.772;8.768;2023-12-28T13:05:54;2.00;;;1.30;;
2386;SDS011;49473;50.772;8.768;2023-12-28T13:08:22;2.90;;;1.40;;
2386;SDS011;49473;50.772;8.768;2023-12-28T13:10:50;4.50;;;1.60;;
2386;SDS011;49473;50.772;8.768;2023-12-28T13:13:17;4.40;;;1.70;;
2386;SDS011;49473;50.772;8.768;2023-12-28T13:15:44;3.07;;;1.43;;
2386;SDS011;49473;50.772;8.768;2023-12-28T13:18:10;2.50;;;1.40;;
2386;SDS011;49473;50.772;8.768;2023-12-28T13:20:37;3.97;;;1.40;;
2386;SDS011;49473;50.772;8.768;2023-12-28T13:23:04;1.50;;;1.40;;
2386;SDS011;49473;50.772;8.768;2023-12-28T13:25:31;3.20;;;1.50;;
2386;SDS011;49473;50.772;8.768;2023-12-28T13:27:59;2.00;;;1.43;;
2386;SDS011;49473;50.772;8.768;2023-12-28T13:30:27;4.57;;;1.73;;
2386;SDS011;49473;50.772;8.768;2023-12-28T13:32:54;6.30;;;1.70;;
2386;SDS011;49473;50.772;8.768;2023-12-28T13:35:21;1.37;;;1.20;;
2386;SDS011;49473;50.772;8.768;2023-12-28T13:37:48;2.10;;;1.37;;
2386;SDS011;49473;50.772;8.768;2023-12-28T13:40:15;2.10;;;1.60;;
2386;SDS011;49473;50.772;8.768;2023-12-28T13:42:42;2.50;;;1.30;;
2386;SDS011;49473;50.772;8.768;2023-12-28T13:45:11;1.63;;;1.23;;
2386;SDS011;49473;50.772;8.768;2023-12-28T13:47:38;1.63;;;1.33;;
2386;SDS011;49473;50.772;8.768;2023-12-28T13:50:05;2.80;;;1.53;;
2386;SDS011;49473;50.772;8.768;2023-12-28T13:52:32;4.47;;;1.33;;
2386;SDS011;49473;50.772;8.768;2023-12-28T13:54:59;1.33;;;1.10;;
2386;SDS011;49473;50.772;8.768;2023-12-28T13:57:26;2.37;;;1.27;;
2386;SDS011;49473;50.772;8.768;2023-12-28T13:59:52;1.70;;;1.10;;
2386;SDS011;49473;50.772;8.768;2023-12-28T14:02:22;1.60;;;1.13;;
2386;SDS011;49473;50.772;8.768;2023-12-28T14:04:50;3.37;;;2.63;;
2386;SDS011;49473;50.772;8.768;2023-12-28T14:07:17;2.73;;;1.37;;
2386;SDS011;49473;50.772;8.768;2023-12-28T14:09:43;4.57;;;1.37;;
2386;SDS011;49473;50.772;8.768;2023-12-28T14:12:10;2.43;;;1.40;;
2386;SDS011;49473;50.772;8.768;2023-12-28T14:14:37;6.10;;;1.30;;
2386;SDS011;49473;50.772;8.768;2023-12-28T14:17:04;2.20;;;1.17;;
2386;SDS011;49473;50.772;8.768;2023-12-28T14:19:32;3.43;;;1.40;;
2386;SDS011;49473;50.772;8.768;2023-12-28T14:21:59;3.67;;;1.73;;
2386;SDS011;49473;50.772;8.768;2023-12-28T14:24:26;1.83;;;1.03;;
2386;SDS011;49473;50.772;8.768;2023-12-28T14:26:54;3.03;;;1.63;;
2386;SDS011;49473;50.772;8.768;2023-12-28T14:29:22;1.80;;;1.37;;
2386;SDS011;49473;50.772;8.768;2023-12-28T14:31:49;1.83;;;1.20;;
2386;SDS011;49473;50.772;8.768;2023-12-28T14:34:17;1.47;;;1.37;;
2386;SDS011;49473;50.772;8.768;2023-12-28T14:36:46;4.27;;;1.93;;
2386;SDS011;49473;50.772;8.768;2023-12-28T14:39:15;2.87;;;1.73;;
2386;SDS011;49473;50.772;8.768;2023-12-28T14:41:43;3.50;;;1.67;;
2386;SDS011;49473;50.772;8.768;2023-12-28T14:44:10;2.93;;;1.80;;
2386;SDS011;49473;50.772;8.768;2023-12-28T14:46:37;5.33;;;2.10;;
2386;SDS011;49473;50.772;8.768;2023-12-28T14:49:04;3.63;;;1.90;;
2386;SDS011;49473;50.772;8.768;2023-12-28T14:51:32;2.80;;;1.30;;
2386;SDS011;49473;50.772;8.768;2023-12-28T14:54:00;4.17;;;2.77;;
2386;SDS011;49473;50.772;8.768;2023-12-28T14:56:27;3.23;;;1.83;;
2386;SDS011;49473;50.772;8.768;2023-12-28T14:58:54;3.50;;;1.53;;
2386;SDS011;49473;50.772;8.768;2023-12-28T15:01:20;2.77;;;1.60;;